Share

Tunis-Carthage, Tunisia

Carthage (DTTA) Elev 13 ft | 36.83 °N, 10.23 °E | Change Station

Current weather conditions updated 28 minutes ago

Mostly Cloudy
Mostly Cloudy
75 °F
Feels Like 75 °F
N
7
Wind Variable Wind from East
Sunrise 5:38 AM
Sunset 6:57 PM
Moon Waning Gibbous

Today is forecast to be Much Cooler than yesterday.

Pressure 29.65 in
Visibility 6.2 miles
Clouds Few 2300 ft
Mostly Cloudy 10000 ft
Dew Point 55 °F
Humidity 50%
Rainfall 0.00 in
Snow Depth Not available.
UV 5 out of 16
Pollen Not available.
Air Quality Not available.
Flu Activity Not available.
METAR DTTA 201000Z 09006KT 060V120 9999 FEW023 BKN100 24/13 Q1004 NOSIG

More Conditions Fewer Conditions

Pressure 29.65 in
Visibility 6.2 miles
Clouds Few 2300 ft
Mostly Cloudy 10000 ft
Dew Point 55 °F
Humidity 50%
Rainfall 0.00 in
Snow Depth Not available.
UV 5 out of 16
Pollen Not available.
Air Quality Not available.
Flu Activity Not available.
METAR DTTA 201000Z 09006KT 060V120 9999 FEW023 BKN100 24/13 Q1004 NOSIG

More Conditions Fewer Conditions

10-Day Weather Forecast

Almanac

Astronomy

Apr. 20, 2014 Rise Set
Actual Time 5:38 AM CET 6:57 PM CET
Civil Twilight 5:11 AM CET 7:24 PM CET
Nautical Twilight 4:39 AM CET 7:57 PM CET
Astronomical Twilight 4:05 AM CET 8:31 PM CET
Moon No Moon Rise 9:44 AM CET
Length of Visible Light 14h 13m
Length of Day
13h 19m
Tomorrow will be 2m 11s longer.
Waning Gibbous, 71% of the Moon is Illuminated
Today
Waning Gibbous
Apr 22
Last Quarter
Apr 29
New
May 6
First Quarter
May 14
Full

Yesterday's Extremes

Country Highs Country Lows

Community

  • Easter Greetings
    Easter Greetings
  • Sunny day at the coast-Cape Arago Lighthouse
    Sunny day at the coast-Cape Arago Lighthouse
  • Cherry Blossoms
    Cherry Blossoms
  • White-Crowned Sparrow
    White-Crowned Sparrow
  • New Day
    New Day

WunderPhotos

Upload Photos

1,703,135 photos uploaded!

WunderBlogs® & News

Nearby

Snow Depth

Not available.

Coastal Water Temperatures

Place Temperature
No Stations Reporting

Earthquake Activity

City Distance Mag. Time & Date
No recent earthquake activity has been reported nearby.
Minimum magnitude displayed is 2.5.

Nearby Weather Stations

There are no personal weather stations in this area.

What do you think?

We're not finished. Please let us know what you like, what you don't like, and what you are still missing.